createdAt,value
2017-10-03T00:00:52.132Z,89.35
2017-10-03T00:03:19.974Z,89.35
2017-10-03T00:05:47.471Z,89.38
2017-10-03T00:08:14.943Z,90.11
2017-10-03T00:10:42.426Z,90.42
2017-10-03T00:13:09.898Z,89.90
2017-10-03T00:15:37.454Z,89.81
2017-10-03T00:18:05.015Z,90.29
2017-10-03T00:20:32.475Z,91.00
2017-10-03T00:22:59.954Z,90.80
2017-10-03T00:25:27.691Z,90.94
2017-10-03T00:27:55.149Z,91.12
2017-10-03T00:30:22.614Z,90.88
2017-10-03T00:32:50.093Z,90.85
2017-10-03T00:35:17.555Z,90.90
2017-10-03T00:37:45.027Z,90.88
2017-10-03T00:40:12.501Z,91.29
2017-10-03T00:42:39.967Z,91.09
2017-10-03T00:45:07.434Z,91.25
2017-10-03T00:47:35.173Z,91.70
2017-10-03T00:50:02.625Z,90.84
2017-10-03T00:52:30.127Z,91.27
2017-10-03T00:54:57.634Z,91.21
2017-10-03T00:57:25.092Z,90.83
2017-10-03T00:59:52.558Z,91.48
2017-10-03T01:02:20.077Z,91.26
2017-10-03T01:04:47.548Z,91.61
2017-10-03T01:07:15.005Z,91.18
2017-10-03T01:09:42.860Z,91.15
2017-10-03T01:12:10.311Z,91.07
2017-10-03T01:14:37.759Z,91.42
2017-10-03T01:17:05.316Z,91.43
2017-10-03T01:19:32.767Z,90.86
2017-10-03T01:22:00.246Z,90.94
2017-10-03T01:24:27.702Z,91.32
2017-10-03T01:26:55.170Z,91.45
2017-10-03T01:29:22.631Z,92.29
2017-10-03T01:31:50.363Z,91.96
2017-10-03T01:34:17.933Z,92.17
2017-10-03T01:36:45.394Z,92.62
2017-10-03T01:39:12.938Z,92.08
2017-10-03T01:41:40.444Z,91.62
2017-10-03T01:44:07.943Z,91.05
2017-10-03T01:46:35.396Z,91.39
2017-10-03T01:49:03.179Z,91.41
2017-10-03T01:51:30.634Z,91.59
2017-10-03T01:53:58.102Z,91.71
2017-10-03T01:56:25.596Z,92.27
2017-10-03T01:58:53.061Z,92.02
2017-10-03T02:01:20.530Z,91.76
2017-10-03T02:03:47.986Z,92.05
2017-10-03T02:06:15.795Z,91.77
2017-10-03T02:08:43.247Z,92.05
2017-10-03T02:11:10.709Z,91.91
2017-10-03T02:13:38.182Z,91.91
2017-10-03T02:16:05.629Z,92.30
2017-10-03T02:18:33.098Z,91.99
2017-10-03T02:21:00.551Z,92.03
2017-10-03T02:23:28.295Z,92.37
2017-10-03T02:25:55.748Z,92.36
2017-10-03T02:28:23.206Z,92.26
2017-10-03T02:30:50.675Z,92.69
2017-10-03T02:33:18.228Z,91.95
2017-10-03T02:35:45.708Z,92.29
2017-10-03T02:38:13.165Z,92.25
2017-10-03T02:40:40.892Z,92.10
2017-10-03T02:43:08.352Z,92.72
2017-10-03T02:45:35.870Z,92.58
2017-10-03T02:48:03.345Z,92.44
2017-10-03T02:50:30.794Z,92.33
2017-10-03T02:52:58.517Z,92.66
2017-10-03T02:55:25.982Z,92.65
2017-10-03T02:57:53.515Z,92.95
2017-10-03T03:00:20.999Z,93.10
2017-10-03T03:02:48.452Z,93.03
2017-10-03T03:05:15.918Z,93.17
2017-10-03T03:07:43.369Z,93.22
2017-10-03T03:10:10.877Z,93.19
2017-10-03T03:12:38.343Z,93.45
2017-10-03T03:15:06.119Z,93.36
2017-10-03T03:17:33.571Z,93.18
2017-10-03T03:20:01.033Z,93.31
2017-10-03T03:22:28.520Z,92.84
2017-10-03T03:24:55.984Z,92.80
2017-10-03T03:27:24.258Z,93.10
2017-10-03T03:29:51.716Z,93.17
2017-10-03T03:32:19.475Z,92.93
2017-10-03T03:34:46.956Z,93.02
2017-10-03T03:37:14.420Z,93.13
2017-10-03T03:39:41.881Z,92.98
2017-10-03T03:42:09.377Z,92.62
2017-10-03T03:44:36.844Z,92.57
2017-10-03T03:47:04.313Z,92.63
2017-10-03T03:49:31.794Z,92.60
2017-10-03T03:51:59.320Z,92.88
2017-10-03T03:54:27.119Z,92.94
2017-10-03T03:56:54.562Z,92.26
2017-10-03T03:59:22.018Z,92.60
2017-10-03T04:01:49.514Z,92.56
2017-10-03T04:04:16.957Z,92.36
2017-10-03T04:06:44.430Z,92.64
2017-10-03T04:09:11.915Z,92.62
2017-10-03T04:11:39.395Z,92.33
2017-10-03T04:14:06.878Z,92.42
2017-10-03T04:16:34.701Z,92.42
2017-10-03T04:19:02.149Z,92.42
2017-10-03T04:21:29.612Z,92.50
2017-10-03T04:23:57.075Z,92.11
2017-10-03T04:26:24.530Z,92.36
2017-10-03T04:28:52.004Z,91.96
2017-10-03T04:31:19.470Z,92.00
2017-10-03T04:33:46.932Z,92.08
2017-10-03T04:36:14.381Z,91.89
2017-10-03T04:38:42.118Z,91.91
2017-10-03T04:41:09.678Z,92.04
2017-10-03T04:43:37.237Z,92.16
2017-10-03T04:46:04.699Z,91.85
2017-10-03T04:48:32.151Z,92.13
2017-10-03T04:50:59.616Z,92.29
2017-10-03T04:53:27.069Z,91.34
2017-10-03T04:55:54.854Z,91.66
2017-10-03T04:58:22.342Z,92.00
2017-10-03T05:00:49.788Z,91.34
2017-10-03T05:03:17.299Z,90.88
2017-10-03T05:05:44.755Z,91.47
2017-10-03T05:08:12.232Z,91.56
2017-10-03T05:10:39.692Z,91.55
2017-10-03T05:13:07.166Z,91.35
2017-10-03T05:15:34.618Z,91.94
2017-10-03T05:18:02.449Z,91.52
2017-10-03T05:20:29.917Z,91.59
2017-10-03T05:22:57.492Z,91.21
2017-10-03T05:25:25.057Z,91.24
2017-10-03T05:27:52.512Z,91.39
2017-10-03T05:30:19.992Z,91.43
2017-10-03T05:32:47.450Z,91.52
2017-10-03T05:35:14.922Z,91.90
2017-10-03T05:37:42.392Z,91.06
2017-10-03T05:40:10.189Z,91.21
2017-10-03T05:42:37.650Z,91.41
2017-10-03T05:45:05.122Z,90.46
2017-10-03T05:47:32.603Z,90.78
2017-10-03T05:50:00.060Z,91.22
2017-10-03T05:52:27.534Z,90.73
2017-10-03T05:54:55.017Z,90.47
2017-10-03T05:57:22.474Z,90.62
2017-10-03T05:59:49.933Z,90.62
2017-10-03T06:02:17.405Z,90.17
2017-10-03T06:04:44.879Z,90.35
2017-10-03T06:07:12.349Z,90.78
2017-10-03T06:09:39.805Z,90.85
2017-10-03T06:12:07.286Z,90.68
2017-10-03T06:14:34.741Z,90.22
2017-10-03T06:17:02.459Z,90.44
2017-10-03T06:19:29.922Z,90.20
2017-10-03T06:21:57.401Z,90.38
2017-10-03T06:24:24.882Z,90.26
2017-10-03T06:26:52.352Z,89.87
2017-10-03T06:29:19.876Z,90.17
2017-10-03T06:31:47.361Z,88.37
2017-10-03T06:34:14.836Z,88.43
2017-10-03T06:36:42.403Z,88.50
2017-10-03T06:39:10.190Z,88.39
2017-10-03T06:41:37.638Z,88.53
2017-10-03T06:44:05.087Z,88.81
2017-10-03T06:46:32.548Z,89.15
2017-10-03T06:49:00.013Z,88.61
2017-10-03T06:51:27.625Z,88.99
2017-10-03T06:53:55.100Z,89.00
2017-10-03T06:56:22.581Z,89.48
2017-10-03T06:58:50.036Z,89.31
2017-10-03T07:01:17.807Z,89.90
2017-10-03T07:03:45.264Z,89.32
2017-10-03T07:06:12.728Z,89.45
2017-10-03T07:08:40.203Z,89.70
2017-10-03T07:11:07.681Z,89.25
2017-10-03T07:13:35.160Z,90.17
2017-10-03T07:16:02.627Z,89.96
2017-10-03T07:18:30.110Z,89.99
2017-10-03T07:20:57.590Z,89.19
2017-10-03T07:23:25.300Z,89.18
2017-10-03T07:25:52.750Z,89.36
2017-10-03T07:28:20.204Z,89.44
2017-10-03T07:30:47.773Z,88.84
2017-10-03T07:33:15.225Z,88.87
2017-10-03T07:35:42.690Z,88.39
2017-10-03T07:38:10.153Z,88.80
2017-10-03T07:40:37.951Z,88.08
2017-10-03T07:43:05.407Z,89.09
2017-10-03T07:45:32.952Z,88.43
2017-10-03T07:48:00.434Z,88.19
2017-10-03T07:50:27.965Z,86.66
2017-10-03T07:52:55.527Z,87.54
2017-10-03T07:55:22.994Z,87.61
2017-10-03T07:57:50.477Z,88.12
2017-10-03T08:00:17.927Z,87.64
2017-10-03T08:02:45.760Z,87.74
2017-10-03T08:05:13.649Z,86.39
2017-10-03T08:07:41.208Z,87.17
2017-10-03T08:10:08.693Z,86.98
2017-10-03T08:12:36.151Z,86.80
2017-10-03T08:15:03.624Z,87.50
2017-10-03T08:17:31.087Z,86.09
2017-10-03T08:19:58.566Z,85.83
2017-10-03T08:22:26.030Z,87.25
2017-10-03T08:24:53.850Z,86.40
2017-10-03T08:27:21.333Z,84.83
2017-10-03T08:29:48.825Z,84.87
2017-10-03T08:32:16.306Z,85.11
2017-10-03T08:34:43.779Z,84.93
2017-10-03T08:37:11.261Z,83.65
2017-10-03T08:39:38.747Z,82.26
2017-10-03T08:42:06.240Z,82.51
2017-10-03T08:44:33.697Z,80.95
2017-10-03T08:47:01.195Z,82.20
2017-10-03T08:49:28.680Z,81.30
2017-10-03T08:51:56.437Z,80.82
2017-10-03T08:54:23.899Z,81.85
2017-10-03T08:56:51.514Z,80.59
2017-10-03T08:59:19.051Z,79.78
2017-10-03T09:01:46.583Z,81.02
2017-10-03T09:04:14.067Z,79.48
2017-10-03T09:06:41.595Z,78.80
2017-10-03T09:09:09.160Z,78.67
2017-10-03T09:11:36.724Z,79.04
2017-10-03T09:14:04.505Z,75.92
2017-10-03T09:16:31.984Z,76.37
2017-10-03T09:18:59.433Z,76.53
2017-10-03T09:21:26.909Z,78.82
2017-10-03T09:23:54.398Z,78.89
2017-10-03T09:26:21.866Z,78.44
2017-10-03T09:28:49.353Z,77.38
2017-10-03T09:31:16.827Z,77.11
2017-10-03T09:33:44.304Z,78.32
2017-10-03T09:36:12.082Z,78.70
2017-10-03T09:38:39.587Z,78.20
2017-10-03T09:41:07.122Z,77.16
2017-10-03T09:43:34.606Z,74.19
2017-10-03T09:46:02.083Z,75.02
2017-10-03T09:48:29.563Z,74.99
2017-10-03T09:50:57.070Z,74.72
2017-10-03T09:53:24.808Z,72.24
2017-10-03T09:55:52.305Z,74.84
2017-10-03T09:58:19.806Z,71.61
2017-10-03T10:00:47.283Z,71.45
2017-10-03T10:03:14.766Z,74.03
2017-10-03T10:05:42.260Z,71.20
2017-10-03T10:08:09.766Z,71.19
2017-10-03T10:10:37.276Z,71.79
2017-10-03T10:13:04.809Z,70.48
2017-10-03T10:15:32.377Z,68.94
2017-10-03T10:23:45.439Z,70.35
2017-10-03T10:26:12.901Z,67.72
2017-10-03T10:28:40.643Z,68.11
2017-10-03T10:31:08.165Z,67.75
2017-10-03T10:33:35.680Z,67.37
2017-10-03T10:36:03.161Z,62.31
2017-10-03T10:38:30.634Z,61.08
2017-10-03T10:40:58.122Z,61.66
2017-10-03T10:43:25.697Z,62.39
2017-10-03T10:45:53.176Z,60.30
2017-10-03T10:48:20.872Z,58.75
2017-10-03T10:50:48.651Z,60.73
2017-10-03T10:53:16.102Z,61.51
2017-10-03T10:55:43.602Z,62.07
2017-10-03T10:58:11.159Z,63.61
2017-10-03T11:00:38.634Z,62.39
2017-10-03T11:03:06.134Z,63.09
2017-10-03T11:05:33.609Z,63.92
2017-10-03T11:08:01.094Z,63.56
2017-10-03T11:10:28.579Z,62.36
2017-10-03T11:12:56.382Z,64.16
2017-10-03T11:15:23.992Z,60.24
2017-10-03T11:17:51.611Z,60.17
2017-10-03T11:20:19.085Z,59.59
2017-10-03T11:22:58.544Z,60.79
2017-10-03T11:25:26.021Z,61.00
2017-10-03T11:27:53.532Z,61.80
2017-10-03T11:30:21.072Z,64.66
2017-10-03T11:32:48.642Z,64.85
2017-10-03T11:35:16.139Z,58.52
2017-10-03T11:37:43.605Z,57.92
2017-10-03T11:40:11.499Z,60.30
2017-10-03T11:42:38.962Z,57.92
2017-10-03T11:45:06.445Z,59.11
2017-10-03T11:47:33.943Z,59.66
2017-10-03T11:50:01.407Z,59.84
2017-10-03T11:52:28.893Z,60.19
2017-10-03T11:54:56.364Z,61.04
2017-10-03T11:57:23.847Z,61.24
2017-10-03T11:59:51.315Z,60.47
2017-10-03T12:02:18.805Z,63.05
2017-10-03T12:04:46.259Z,64.91
2017-10-03T12:07:13.998Z,65.64
2017-10-03T12:09:41.485Z,66.70
2017-10-03T12:12:08.959Z,67.61
2017-10-03T12:14:36.418Z,67.36
2017-10-03T12:17:03.913Z,65.81
2017-10-03T12:19:31.383Z,64.88
2017-10-03T12:21:58.846Z,63.65
2017-10-03T12:24:26.318Z,63.39
2017-10-03T12:26:53.773Z,65.32
2017-10-03T12:29:21.240Z,63.24
2017-10-03T12:31:48.704Z,62.95
2017-10-03T12:34:16.160Z,67.36
2017-10-03T12:36:43.651Z,70.56
2017-10-03T12:39:11.282Z,70.00
2017-10-03T12:41:38.757Z,70.68
2017-10-03T12:44:06.233Z,69.81
2017-10-03T12:46:33.783Z,72.26
2017-10-03T12:49:03.295Z,73.03
2017-10-03T12:51:31.055Z,73.15
2017-10-03T12:53:58.519Z,73.13
2017-10-03T12:56:25.993Z,72.08
2017-10-03T12:58:53.524Z,74.03
2017-10-03T13:01:21.002Z,67.58
2017-10-03T13:03:48.474Z,65.28
2017-10-03T13:06:15.945Z,60.63
2017-10-03T13:08:43.486Z,61.38
2017-10-03T13:11:11.755Z,61.92
2017-10-03T13:13:39.216Z,56.92
2017-10-03T13:16:06.692Z,57.77
2017-10-03T13:18:34.465Z,57.19
2017-10-03T13:21:02.127Z,55.31
2017-10-03T13:23:29.590Z,58.57
2017-10-03T13:25:57.104Z,56.26
2017-10-03T13:28:24.594Z,56.48
2017-10-03T13:30:52.118Z,58.30
2017-10-03T13:33:19.586Z,60.39
2017-10-03T13:35:47.142Z,58.21
2017-10-03T13:38:14.709Z,61.64
2017-10-03T13:40:42.570Z,60.21
2017-10-03T13:43:10.057Z,60.11
2017-10-03T13:45:38.233Z,60.66
2017-10-03T13:48:05.746Z,59.82
2017-10-03T13:50:33.235Z,60.09
2017-10-03T13:53:00.718Z,61.39
2017-10-03T13:55:28.186Z,61.47
2017-10-03T13:57:55.684Z,64.76
2017-10-03T14:00:23.171Z,59.61
2017-10-03T14:02:50.797Z,58.19
2017-10-03T14:05:18.266Z,57.42
2017-10-03T14:07:46.144Z,57.85
2017-10-03T14:10:13.686Z,55.95
2017-10-03T14:12:41.165Z,53.83
2017-10-03T14:15:08.664Z,54.41
2017-10-03T14:17:36.127Z,54.22
2017-10-03T14:20:03.619Z,55.18
2017-10-03T14:22:31.107Z,53.48
2017-10-03T14:24:58.581Z,54.27
2017-10-03T14:27:26.087Z,54.82
2017-10-03T14:29:53.576Z,55.71
2017-10-03T14:32:21.032Z,55.10
2017-10-03T14:34:48.552Z,55.71
2017-10-03T14:37:16.048Z,58.54
2017-10-03T14:39:43.581Z,57.13
2017-10-03T14:42:11.099Z,58.24
2017-10-03T14:44:38.563Z,59.14
2017-10-03T14:47:06.052Z,58.52
2017-10-03T14:49:33.571Z,60.82
2017-10-03T14:52:01.044Z,59.26
2017-10-03T14:54:28.519Z,60.72
2017-10-03T14:56:55.989Z,56.96
2017-10-03T14:59:23.483Z,56.70
2017-10-03T15:01:50.962Z,56.60
2017-10-03T15:04:18.437Z,56.61
2017-10-03T15:06:45.936Z,56.81
2017-10-03T15:09:13.483Z,55.54
2017-10-03T15:11:40.938Z,57.84
2017-10-03T15:14:08.677Z,56.63
2017-10-03T15:16:36.144Z,54.54
2017-10-03T15:19:03.947Z,55.93
2017-10-03T15:21:32.275Z,56.62
2017-10-03T15:23:59.751Z,55.75
2017-10-03T15:26:27.297Z,55.66
2017-10-03T15:28:54.776Z,56.36
2017-10-03T15:31:22.261Z,56.80
2017-10-03T15:33:49.733Z,59.23
2017-10-03T15:36:17.234Z,58.45
2017-10-03T15:38:44.707Z,59.10
2017-10-03T15:41:12.211Z,58.87
2017-10-03T15:43:39.704Z,59.66
2017-10-03T15:46:07.293Z,60.53
2017-10-03T15:48:34.824Z,61.08
2017-10-03T15:51:02.388Z,61.62
2017-10-03T15:53:29.857Z,61.42
2017-10-03T15:55:57.339Z,61.51
2017-10-03T15:58:24.896Z,61.01
2017-10-03T16:00:52.376Z,60.60
2017-10-03T16:03:19.863Z,59.60
2017-10-03T16:05:47.343Z,59.34
2017-10-03T16:08:14.808Z,59.40
2017-10-03T16:10:42.319Z,59.79
2017-10-03T16:13:09.797Z,59.80
2017-10-03T16:15:38.245Z,59.14
2017-10-03T16:18:05.712Z,59.41
2017-10-03T16:20:33.192Z,60.14
2017-10-03T16:23:00.691Z,60.87
2017-10-03T16:25:28.166Z,62.07
2017-10-03T16:27:55.618Z,62.75
2017-10-03T16:30:23.118Z,62.61
2017-10-03T16:32:50.583Z,63.21
2017-10-03T16:35:18.043Z,64.07
2017-10-03T16:37:45.525Z,64.14
2017-10-03T16:40:12.983Z,63.39
2017-10-03T16:42:40.489Z,63.25
2017-10-03T16:45:07.952Z,64.02
2017-10-03T16:47:35.424Z,64.12
2017-10-03T16:50:02.879Z,64.34
2017-10-03T16:52:30.421Z,64.89
2017-10-03T16:54:57.883Z,65.45
2017-10-03T16:57:25.678Z,66.20
2017-10-03T16:59:53.150Z,66.14
2017-10-03T17:02:20.646Z,66.09
2017-10-03T17:04:48.119Z,66.52
2017-10-03T17:07:15.580Z,66.77
2017-10-03T17:09:43.176Z,66.88
2017-10-03T17:12:10.743Z,66.54
2017-10-03T17:14:39.134Z,66.74
2017-10-03T17:17:06.611Z,67.31
2017-10-03T17:19:34.118Z,68.03
2017-10-03T17:22:01.689Z,67.78
2017-10-03T17:24:29.158Z,68.02
2017-10-03T17:26:56.710Z,67.83
2017-10-03T17:29:24.171Z,67.50
2017-10-03T17:31:51.907Z,67.15
2017-10-03T17:34:19.374Z,66.58
2017-10-03T17:36:46.865Z,66.96
2017-10-03T17:39:14.364Z,66.97
2017-10-03T17:41:41.835Z,66.54
2017-10-03T17:44:09.315Z,67.28
2017-10-03T17:46:36.797Z,67.07
2017-10-03T17:49:04.262Z,67.60
2017-10-03T17:51:31.732Z,67.45
2017-10-03T17:53:59.209Z,67.35
2017-10-03T17:56:26.693Z,67.57
2017-10-03T17:58:54.195Z,67.21
2017-10-03T18:01:21.728Z,67.15
2017-10-03T18:03:49.280Z,67.65
2017-10-03T18:06:16.748Z,67.96
2017-10-03T18:08:44.331Z,67.80
2017-10-03T18:11:11.817Z,68.92
2017-10-03T18:13:39.611Z,67.85
2017-10-03T18:16:07.101Z,67.73
2017-10-03T18:18:34.661Z,67.53
2017-10-03T18:21:02.132Z,67.84
2017-10-03T18:23:29.615Z,68.38
2017-10-03T18:25:57.194Z,68.71
2017-10-03T18:28:24.670Z,69.11
2017-10-03T18:30:52.231Z,69.03
2017-10-03T18:33:19.751Z,69.72
2017-10-03T18:35:47.212Z,68.64
2017-10-03T18:38:14.684Z,69.10
2017-10-03T18:40:42.147Z,69.37
2017-10-03T18:43:09.632Z,68.70
2017-10-03T18:45:37.093Z,68.73
2017-10-03T18:48:04.616Z,68.71
2017-10-03T18:50:32.954Z,69.02
2017-10-03T18:53:00.445Z,68.87
2017-10-03T18:55:27.914Z,69.36
2017-10-03T18:57:55.403Z,69.88
2017-10-03T19:00:22.856Z,70.19
2017-10-03T19:02:50.339Z,70.45
2017-10-03T19:05:17.825Z,70.15
2017-10-03T19:07:45.534Z,70.34
2017-10-03T19:10:12.997Z,70.29
2017-10-03T19:12:40.806Z,70.63
2017-10-03T19:15:08.278Z,70.88
2017-10-03T19:17:35.846Z,70.99
2017-10-03T19:20:03.429Z,71.43
2017-10-03T19:22:30.966Z,71.74
2017-10-03T19:24:58.534Z,71.73
2017-10-03T19:27:26.024Z,72.04
2017-10-03T19:29:53.551Z,71.97
2017-10-03T19:32:21.016Z,72.39
2017-10-03T19:34:49.033Z,72.70
2017-10-03T19:37:16.516Z,72.31
2017-10-03T19:39:44.079Z,72.43
2017-10-03T19:42:11.566Z,72.68
2017-10-03T19:44:39.074Z,74.11
2017-10-03T19:47:06.667Z,74.87
2017-10-03T19:49:34.143Z,73.72
2017-10-03T19:52:01.624Z,73.31
2017-10-03T19:54:29.082Z,73.74
2017-10-03T19:56:56.572Z,73.54
2017-10-03T19:59:24.038Z,73.66
2017-10-03T20:01:51.540Z,74.08
2017-10-03T20:04:19.066Z,73.47
2017-10-03T20:06:46.561Z,73.76
2017-10-03T20:09:14.040Z,73.92
2017-10-03T20:11:41.513Z,74.30
2017-10-03T20:14:08.976Z,74.28
2017-10-03T20:16:36.467Z,74.51
2017-10-03T20:19:03.960Z,74.72
2017-10-03T20:21:31.462Z,74.19
2017-10-03T20:23:58.933Z,74.22
2017-10-03T20:26:26.409Z,74.28
2017-10-03T20:28:53.910Z,74.47
2017-10-03T20:31:21.374Z,74.63
2017-10-03T20:33:49.872Z,74.67
2017-10-03T20:36:17.337Z,75.37
2017-10-03T20:38:44.828Z,74.94
2017-10-03T20:41:12.357Z,75.04
2017-10-03T20:43:39.827Z,75.05
2017-10-03T20:46:07.310Z,75.12
2017-10-03T20:48:34.786Z,75.36
2017-10-03T20:51:02.287Z,76.45
2017-10-03T20:53:29.767Z,76.22
2017-10-03T20:55:57.254Z,76.21
2017-10-03T20:58:24.759Z,76.33
2017-10-03T21:00:52.265Z,77.32
2017-10-03T21:03:19.733Z,76.93
2017-10-03T21:05:47.215Z,76.73
2017-10-03T21:08:14.690Z,76.75
2017-10-03T21:10:42.149Z,76.55
2017-10-03T21:13:09.647Z,76.65
2017-10-03T21:15:37.122Z,76.93
2017-10-03T21:18:04.611Z,77.65
2017-10-03T21:20:32.084Z,77.14
2017-10-03T21:22:59.865Z,76.59
2017-10-03T21:25:27.342Z,76.16
2017-10-03T21:27:54.816Z,76.74
2017-10-03T21:30:22.318Z,76.52
2017-10-03T21:32:50.070Z,76.66
2017-10-03T21:35:17.535Z,76.78
2017-10-03T21:37:45.012Z,76.54
2017-10-03T21:40:12.494Z,76.65
2017-10-03T21:42:52.009Z,76.67
2017-10-03T21:45:19.489Z,76.94
2017-10-03T21:47:46.961Z,77.18
2017-10-03T21:50:14.454Z,77.54
2017-10-03T21:52:41.935Z,77.56
2017-10-03T21:55:09.417Z,77.32
2017-10-03T21:57:36.885Z,77.25
2017-10-03T22:00:04.347Z,77.43
2017-10-03T22:02:31.846Z,77.24
2017-10-03T22:04:59.404Z,77.70
2017-10-03T22:07:29.547Z,77.27
2017-10-03T22:09:57.076Z,77.25
2017-10-03T22:12:24.568Z,77.32
2017-10-03T22:14:52.032Z,77.25
2017-10-03T22:17:19.507Z,77.33
2017-10-03T22:19:46.980Z,77.08
2017-10-03T22:22:14.487Z,77.30
2017-10-03T22:24:41.972Z,77.44
2017-10-03T22:27:09.530Z,77.33
2017-10-03T22:29:37.010Z,77.27
2017-10-03T22:32:04.471Z,77.19
2017-10-03T22:34:31.944Z,77.30
2017-10-03T22:36:59.422Z,76.95
2017-10-03T22:39:26.893Z,76.82
2017-10-03T22:41:54.578Z,77.19
2017-10-03T22:44:22.069Z,78.50
2017-10-03T22:46:49.550Z,77.29
2017-10-03T22:49:17.011Z,77.32
2017-10-03T22:51:50.078Z,77.41
2017-10-03T22:54:17.561Z,77.42
2017-10-03T22:56:45.100Z,77.60
2017-10-03T22:59:12.552Z,77.51
2017-10-03T23:01:40.036Z,78.86
2017-10-03T23:04:08.391Z,79.08
2017-10-03T23:06:35.875Z,78.04
2017-10-03T23:09:03.437Z,79.16
2017-10-03T23:11:30.993Z,78.19
2017-10-03T23:13:58.476Z,78.40
2017-10-03T23:16:25.998Z,78.32
2017-10-03T23:18:53.468Z,78.61
2017-10-03T23:21:20.963Z,78.04
2017-10-03T23:23:48.431Z,78.52
2017-10-03T23:26:15.887Z,79.32
2017-10-03T23:28:43.367Z,79.16
2017-10-03T23:31:10.843Z,79.78
2017-10-03T23:33:38.353Z,78.85
2017-10-03T23:36:05.814Z,79.68
2017-10-03T23:38:33.280Z,78.46
2017-10-03T23:41:00.787Z,79.07
2017-10-03T23:43:28.261Z,80.05
2017-10-03T23:45:55.749Z,79.75
2017-10-03T23:48:23.202Z,79.82
2017-10-03T23:50:50.679Z,79.38
2017-10-03T23:53:18.139Z,79.29
2017-10-03T23:55:45.608Z,79.41
2017-10-03T23:58:13.088Z,79.54
